Time;durP1;ratioP1;P1;durP2;ratioP2;P2;SDS_P1;SDS_P2;PMS_P1;PMS_P2;Temp;Humidity;BMP_temperature;BMP_pressure;BME280_temperature;BME280_humidity;BME280_pressure;Samples;Min_cycle;Max_cycle;Signal;HPM_P1;HPM_P2
2022/01/26 00:06:40;;;;;;;;;;;;;;;;;;7394825;19;2392;-50
2022/01/26 00:09:08;;;;;;;;;;;;;;;;;;7394273;19;2277;-46
2022/01/26 00:11:36;;;;;;;;;;;;;;;;;;7396930;19;2286;-44
2022/01/26 00:14:04;;;;;;;;;;;;;;;;;;7393677;19;2302;-51
2022/01/26 00:16:42;;;;;;;;;;;;;;;;;;7393836;19;2330;-48
2022/01/26 00:19:12;;;;;;;;;;;;;;;;;;7393554;19;2286;-47
2022/01/26 00:21:52;;;;;;;;;;;;;;;;;;7394085;19;2506;-48
2022/01/26 00:29:23;;;;;;;;;;;;;;;;;;7393080;19;1574;-45
2022/01/26 00:33:06;;;;;;;;;;;;;;;;;;7394473;19;2247;-47
2022/01/26 00:40:28;;;;;;;;;;;;;;;;;;7391217;19;2274;-46
2022/01/26 00:43:00;;;;;;;;;;;;;;;;;;7390751;19;2222;-46
2022/01/26 00:45:34;;;;;;;;;;;;;;;;;;7393168;19;2235;-49
2022/01/26 00:48:04;;;;;;;;;;;;;;;;;;7393763;19;2370;-45
2022/01/26 00:50:32;;;;;;;;;;;;;;;;;;7393697;19;2222;-44
2022/01/26 00:53:00;;;;;;;;;;;;;;;;;;7393346;19;2396;-50
2022/01/26 00:55:27;;;;;;;;;;;;;;;;;;7392928;19;2238;-49
2022/01/26 00:57:54;;;;;;;;;;;;;;;;;;7392471;19;2086;-52
2022/01/26 01:00:22;;;;;;;;;;;;;;;;;;7390875;19;2042;-44
2022/01/26 01:02:50;;;;;;;;;;;;;;;;;;7392497;19;1546;-49
2022/01/26 01:05:21;;;;;;;;;;;;;;;;;;7392857;19;2080;-46
2022/01/26 01:07:52;;;;;;;;;;;;;;;;;;7392683;19;1884;-45
2022/01/26 01:10:22;;;;;;;;;;;;;;;;;;7392464;19;2399;-45
2022/01/26 01:12:54;;;;;;;;;;;;;;;;;;7392112;19;2315;-43
2022/01/26 01:15:24;;;;;;;;;;;;;;;;;;7392173;19;2013;-50
2022/01/26 01:17:57;;;;;;;;;;;;;;;;;;7390844;19;1423;-46
2022/01/26 01:23:31;;;;;;;;;;;;;;;;;;7392256;19;2352;-49
2022/01/26 01:28:53;;;;;;;;;;;;;;;;;;7391972;19;1956;-49
2022/01/26 01:34:18;;;;;;;;;;;;;;;;;;7391117;19;2303;-43
2022/01/26 01:36:49;;;;;;;;;;;;;;;;;;7391303;19;2394;-46
2022/01/26 01:39:17;;;;;;;;;;;;;;;;;;7390880;19;2351;-46
2022/01/26 01:41:46;;;;;;;;;;;;;;;;;;7391817;19;2248;-52
2022/01/26 01:44:14;;;;;;;;;;;;;;;;;;7390815;19;2145;-52
2022/01/26 01:46:42;;;;;;;;;;;;;;;;;;7391029;19;1310;-44
2022/01/26 01:49:11;;;;;;;;;;;;;;;;;;7391108;19;2253;-52
2022/01/26 01:51:42;;;;;;;;;;;;;;;;;;7390782;19;2202;-45
2022/01/26 01:54:14;;;;;;;;;;;;;;;;;;7390782;19;2371;-47
2022/01/26 01:56:52;;;;;;;;;;;;;;;;;;7391122;19;2399;-46
2022/01/26 01:59:21;;;;;;;;;;;;;;;;;;7390722;19;2389;-45
2022/01/26 02:01:48;;;;;;;;;;;;;;;;;;7391358;19;2063;-50
2022/01/26 02:04:15;;;;;;;;;;;;;;;;;;7391595;19;2515;-48
2022/01/26 02:06:43;;;;;;;;;;;;;;;;;;7390127;19;1991;-48
2022/01/26 02:09:11;;;;;;;;;;;;;;;;;;7390667;19;1985;-47
2022/01/26 02:11:46;;;;;;;;;;;;;;;;;;7392925;19;2232;-50
2022/01/26 02:14:20;;;;;;;;;;;;;;;;;;7390779;19;2245;-48
2022/01/26 02:16:56;;;;;;;;;;;;;;;;;;7390401;19;2020;-48
2022/01/26 03:00:01;;;;;;;;;;;;;;;;;;7388908;19;2364;-44
2022/01/26 03:04:59;;;;;;;;;;;;;;;;;;7388561;19;2505;-47
2022/01/26 03:10:08;;;;;;;;;;;;;;;;;;7396324;19;2314;-44
2022/01/26 03:12:45;;;;;;;;;;;;;;;;;;7398935;19;2140;-46
2022/01/26 03:15:19;;;;;;;;;;;;;;;;;;7396156;19;2235;-47
2022/01/26 03:20:19;;;;;;;;;;;;;;;;;;7394349;19;2007;-45
2022/01/26 03:28:26;;;;;;;;;;;;;;;;;;7396749;19;2224;-43
2022/01/26 03:36:11;;;;;;;;;;;;;;;;;;7395307;19;2036;-46
2022/01/26 03:38:48;;;;;;;;;;;;;;;;;;7396233;19;2259;-48
2022/01/26 03:44:15;;;;;;;;;;;;;;;;;;7424813;19;1306;-43
2022/01/26 03:46:43;;;;;;;;;;;;;;;;;;7426078;19;919;-47
2022/01/26 03:49:11;;;;;;;;;;;;;;;;;;7426294;19;954;-45
2022/01/26 03:51:40;;;;;;;;;;;;;;;;;;7426146;19;859;-43
2022/01/26 03:54:08;;;;;;;;;;;;;;;;;;7425428;19;906;-46
2022/01/26 03:56:35;;;;;;;;;;;;;;;;;;7425672;19;967;-43
2022/01/26 03:59:03;;;;;;;;;;;;;;;;;;7425112;19;896;-44
2022/01/26 04:01:32;;;;;;;;;;;;;;;;;;7425242;19;872;-47
2022/01/26 04:04:00;;;;;;;;;;;;;;;;;;7422829;19;1861;-49
2022/01/26 04:06:28;;;;;;;;;;;;;;;;;;7425552;19;1252;-43
2022/01/26 04:08:56;;;;;;;;;;;;;;;;;;7425416;19;1204;-45
2022/01/26 04:13:51;;;;;;;;;;;;;;;;;;7425155;19;937;-47
2022/01/26 04:16:22;;;;;;;;;;;;;;;;;;7425311;19;884;-42
2022/01/26 04:18:49;;;;;;;;;;;;;;;;;;7425495;19;938;-47
2022/01/26 04:22:13;;;;;;;;;;;;;;;;;;7424475;19;857;-44
2022/01/26 04:24:09;;;;;;;;;;;;;;;;;;7420998;19;1849;-46
2022/01/26 04:26:51;;;;;;;;;;;;;;;;;;7426612;19;2024;-44
2022/01/26 04:29:25;;;;;;;;;;;;;;;;;;7424643;19;941;-44
2022/01/26 04:31:52;;;;;;;;;;;;;;;;;;7425148;19;871;-43
2022/01/26 04:34:20;;;;;;;;;;;;;;;;;;7424569;19;958;-48
2022/01/26 04:36:59;;;;;;;;;;;;;;;;;;7382173;19;12876;-42
2022/01/26 04:39:32;;;;;;;;;;;;;;;;;;7422045;19;1029;-43
2022/01/26 04:42:05;;;;;;;;;;;;;;;;;;7421306;19;1293;-44
2022/01/26 04:44:42;;;;;;;;;;;;;;;;;;7423988;19;1026;-48
2022/01/26 04:47:09;;;;;;;;;;;;;;;;;;7423684;19;954;-46
2022/01/26 04:49:37;;;;;;;;;;;;;;;;;;7423971;19;1002;-43
2022/01/26 04:52:04;;;;;;;;;;;;;;;;;;7424111;19;926;-46
2022/01/26 04:54:31;;;;;;;;;;;;;;;;;;7408915;19;926;-43
2022/01/26 04:56:58;;;;;;;;;;;;;;;;;;7395027;19;1017;-44
2022/01/26 04:59:25;;;;;;;;;;;;;;;;;;7394907;19;863;-43
2022/01/26 05:01:52;;;;;;;;;;;;;;;;;;7394303;19;867;-45
2022/01/26 05:04:20;;;;;;;;;;;;;;;;;;7392398;19;1849;-44
2022/01/26 05:06:47;;;;;;;;;;;;;;;;;;7394635;19;954;-45
2022/01/26 05:09:14;;;;;;;;;;;;;;;;;;7394482;19;863;-45
2022/01/26 05:11:42;;;;;;;;;;;;;;;;;;7395045;19;1165;-44
2022/01/26 05:14:10;;;;;;;;;;;;;;;;;;7394836;19;939;-45
2022/01/26 05:16:37;;;;;;;;;;;;;;;;;;7394208;19;1025;-44
2022/01/26 05:19:05;;;;;;;;;;;;;;;;;;7394185;19;1317;-46
2022/01/26 05:21:33;;;;;;;;;;;;;;;;;;7393398;19;963;-43
2022/01/26 05:24:00;;;;;;;;;;;;;;;;;;7392081;19;1924;-48
2022/01/26 05:26:28;;;;;;;;;;;;;;;;;;7393102;19;1147;-43
2022/01/26 05:28:55;;;;;;;;;;;;;;;;;;7393677;19;954;-45
2022/01/26 05:31:22;;;;;;;;;;;;;;;;;;7393600;19;922;-47
2022/01/26 05:33:50;;;;;;;;;;;;;;;;;;7392957;19;1042;-42
2022/01/26 05:36:17;;;;;;;;;;;;;;;;;;7394179;19;859;-43
2022/01/26 05:38:44;;;;;;;;;;;;;;;;;;7393236;19;1100;-46
2022/01/26 05:41:11;;;;;;;;;;;;;;;;;;7393413;19;879;-47
2022/01/26 05:43:41;;;;;;;;;;;;;;;;;;7391070;19;1859;-46
2022/01/26 05:46:10;;;;;;;;;;;;;;;;;;7393068;19;975;-43
2022/01/26 05:48:43;;;;;;;;;;;;;;;;;;7393266;19;925;-49
2022/01/26 05:51:11;;;;;;;;;;;;;;;;;;7393605;19;875;-42
2022/01/26 05:53:40;;;;;;;;;;;;;;;;;;7392650;19;962;-44
2022/01/26 05:56:07;;;;;;;;;;;;;;;;;;7393694;19;884;-44
2022/01/26 05:58:35;;;;;;;;;;;;;;;;;;7393163;19;876;-46
2022/01/26 06:01:03;;;;;;;;;;;;;;;;;;7392332;19;974;-43
2022/01/26 06:03:30;;;;;;;;;;;;;;;;;;7392288;19;1865;-44
2022/01/26 06:05:58;;;;;;;;;;;;;;;;;;7389709;19;954;-43
2022/01/26 06:08:25;;;;;;;;;;;;;;;;;;7392151;19;911;-44
2022/01/26 06:10:55;;;;;;;;;;;;;;;;;;7393232;19;1160;-43
2022/01/26 06:13:22;;;;;;;;;;;;;;;;;;7392538;19;1021;-44
2022/01/26 06:15:49;;;;;;;;;;;;;;;;;;7392708;19;1224;-43
2022/01/26 06:18:17;;;;;;;;;;;;;;;;;;7393226;19;866;-51
2022/01/26 06:20:44;;;;;;;;;;;;;;;;;;7392171;19;853;-46
2022/01/26 06:23:11;;;;;;;;;;;;;;;;;;7391558;19;1846;-43
2022/01/26 06:25:39;;;;;;;;;;;;;;;;;;7390879;19;932;-49
2022/01/26 06:28:11;;;;;;;;;;;;;;;;;;7390077;19;915;-46
2022/01/26 06:30:38;;;;;;;;;;;;;;;;;;7391651;19;970;-45
2022/01/26 06:33:07;;;;;;;;;;;;;;;;;;7390779;19;914;-43
2022/01/26 06:35:35;;;;;;;;;;;;;;;;;;7391664;19;919;-42
2022/01/26 06:38:02;;;;;;;;;;;;;;;;;;7391344;19;1014;-44
2022/01/26 06:40:30;;;;;;;;;;;;;;;;;;7391164;19;1129;-43
2022/01/26 06:43:01;;;;;;;;;;;;;;;;;;7386157;19;1849;-44
2022/01/26 06:45:33;;;;;;;;;;;;;;;;;;7391466;19;922;-45
2022/01/26 06:50:46;;;;;;;;;;;;;;;;;;7392026;19;883;-44
2022/01/26 06:53:13;;;;;;;;;;;;;;;;;;7390820;19;852;-42
2022/01/26 06:55:41;;;;;;;;;;;;;;;;;;7392107;19;843;-43
2022/01/26 06:58:08;;;;;;;;;;;;;;;;;;7390700;19;887;-43
2022/01/26 07:00:35;;;;;;;;;;;;;;;;;;7391283;19;926;-43
2022/01/26 07:03:03;;;;;;;;;;;;;;;;;;7390703;19;1845;-44
2022/01/26 07:05:30;;;;;;;;;;;;;;;;;;7390873;19;931;-43
2022/01/26 07:07:57;;;;;;;;;;;;;;;;;;7390497;19;859;-43
2022/01/26 07:10:25;;;;;;;;;;;;;;;;;;7390613;19;1161;-46
2022/01/26 07:12:52;;;;;;;;;;;;;;;;;;7391453;19;927;-44
2022/01/26 07:23:28;;;;;;;;;;;;;;;;;;7389703;19;1838;-45
2022/01/26 07:25:55;;;;;;;;;;;;;;;;;;7390649;19;862;-44
2022/01/26 07:28:22;;;;;;;;;;;;;;;;;;7389712;19;930;-44
2022/01/26 07:30:50;;;;;;;;;;;;;;;;;;7390312;19;966;-44
2022/01/26 07:33:18;;;;;;;;;;;;;;;;;;7390811;19;891;-45
2022/01/26 07:35:45;;;;;;;;;;;;;;;;;;7389456;19;856;-44
2022/01/26 07:38:13;;;;;;;;;;;;;;;;;;7390107;19;960;-49
2022/01/26 07:40:42;;;;;;;;;;;;;;;;;;7390180;19;960;-44
2022/01/26 07:43:09;;;;;;;;;;;;;;;;;;7388834;19;1865;-44
2022/01/26 07:45:36;;;;;;;;;;;;;;;;;;7389918;19;958;-43
2022/01/26 07:48:04;;;;;;;;;;;;;;;;;;7392073;19;958;-47
2022/01/26 07:50:31;;;;;;;;;;;;;;;;;;7389611;19;919;-44
2022/01/26 07:53:00;;;;;;;;;;;;;;;;;;7389814;19;1149;-43
2022/01/26 07:55:27;;;;;;;;;;;;;;;;;;7388869;19;942;-45
2022/01/26 07:57:56;;;;;;;;;;;;;;;;;;7389788;19;1032;-44
2022/01/26 08:00:24;;;;;;;;;;;;;;;;;;7389614;19;1299;-44
2022/01/26 08:02:52;;;;;;;;;;;;;;;;;;7388880;19;1035;-44
2022/01/26 08:05:21;;;;;;;;;;;;;;;;;;7389427;19;934;-45
2022/01/26 08:07:49;;;;;;;;;;;;;;;;;;7389113;19;966;-44
2022/01/26 08:10:16;;;;;;;;;;;;;;;;;;7389164;19;1122;-43
2022/01/26 08:12:43;;;;;;;;;;;;;;;;;;7388383;19;1054;-43
2022/01/26 08:15:21;;;;;;;;;;;;;;;;;;7389089;19;970;-43
2022/01/26 08:17:48;;;;;;;;;;;;;;;;;;7389468;19;946;-44
2022/01/26 08:20:16;;;;;;;;;;;;;;;;;;7388366;19;871;-45
2022/01/26 08:22:43;;;;;;;;;;;;;;;;;;7388807;19;939;-47
2022/01/26 08:25:10;;;;;;;;;;;;;;;;;;7387118;19;1856;-43
2022/01/26 08:27:42;;;;;;;;;;;;;;;;;;7389007;19;874;-43
2022/01/26 08:30:14;;;;;;;;;;;;;;;;;;7392362;19;868;-44
2022/01/26 08:32:42;;;;;;;;;;;;;;;;;;7395564;19;934;-43
2022/01/26 08:35:10;;;;;;;;;;;;;;;;;;7395524;19;882;-44
2022/01/26 08:37:37;;;;;;;;;;;;;;;;;;7395304;19;916;-44
2022/01/26 08:40:05;;;;;;;;;;;;;;;;;;7395449;19;851;-47
2022/01/26 08:42:32;;;;;;;;;;;;;;;;;;7393757;19;1173;-44
2022/01/26 08:44:59;;;;;;;;;;;;;;;;;;7393229;19;1846;-45
2022/01/26 08:47:26;;;;;;;;;;;;;;;;;;7395098;19;939;-43
2022/01/26 08:49:54;;;;;;;;;;;;;;;;;;7394443;19;875;-47
2022/01/26 08:52:21;;;;;;;;;;;;;;;;;;7395192;19;930;-48
2022/01/26 08:54:48;;;;;;;;;;;;;;;;;;7395394;19;942;-47
2022/01/26 08:57:15;;;;;;;;;;;;;;;;;;7394487;19;943;-44
2022/01/26 08:59:42;;;;;;;;;;;;;;;;;;7394933;19;943;-44
2022/01/26 09:02:10;;;;;;;;;;;;;;;;;;7393434;19;927;-45
2022/01/26 09:04:38;;;;;;;;;;;;;;;;;;7392848;19;1861;-47
2022/01/26 09:07:05;;;;;;;;;;;;;;;;;;7394862;19;926;-51
2022/01/26 09:09:42;;;;;;;;;;;;;;;;;;7394723;19;894;-45
2022/01/26 09:12:19;;;;;;;;;;;;;;;;;;7398161;19;1168;-46
2022/01/26 09:14:47;;;;;;;;;;;;;;;;;;7394161;19;1072;-45
2022/01/26 09:17:14;;;;;;;;;;;;;;;;;;7393643;19;1332;-44
2022/01/26 09:19:43;;;;;;;;;;;;;;;;;;7394438;19;954;-42
2022/01/26 09:22:14;;;;;;;;;;;;;;;;;;7394551;19;867;-42
2022/01/26 09:24:42;;;;;;;;;;;;;;;;;;7392413;19;1853;-46
2022/01/26 09:27:12;;;;;;;;;;;;;;;;;;7394327;19;943;-46
2022/01/26 09:29:39;;;;;;;;;;;;;;;;;;7393859;19;954;-44
2022/01/26 09:32:07;;;;;;;;;;;;;;;;;;7393844;19;885;-45
2022/01/26 09:34:35;;;;;;;;;;;;;;;;;;7393922;19;1001;-44
2022/01/26 09:37:03;;;;;;;;;;;;;;;;;;7393755;19;1171;-44
2022/01/26 09:39:30;;;;;;;;;;;;;;;;;;7393433;19;970;-49
2022/01/26 09:41:58;;;;;;;;;;;;;;;;;;7393017;19;1220;-44
2022/01/26 09:44:26;;;;;;;;;;;;;;;;;;7393439;19;1815;-44
2022/01/26 09:46:53;;;;;;;;;;;;;;;;;;7393035;19;926;-53
2022/01/26 09:49:20;;;;;;;;;;;;;;;;;;7393737;19;915;-52
2022/01/26 09:51:50;;;;;;;;;;;;;;;;;;7393022;19;947;-43
2022/01/26 09:54:18;;;;;;;;;;;;;;;;;;7393250;19;946;-45
2022/01/26 09:56:46;;;;;;;;;;;;;;;;;;7393214;19;962;-45
2022/01/26 09:59:15;;;;;;;;;;;;;;;;;;7393034;19;1033;-44
2022/01/26 10:01:43;;;;;;;;;;;;;;;;;;7392729;19;990;-43
2022/01/26 10:04:21;;;;;;;;;;;;;;;;;;7391635;19;2221;-44
2022/01/26 10:07:04;;;;;;;;;;;;;;;;;;7392092;19;854;-46
2022/01/26 10:17:38;;;;;;;;;;;;;;;;;;7391917;19;1086;-45
2022/01/26 10:20:06;;;;;;;;;;;;;;;;;;7391869;19;951;-44
2022/01/26 10:22:34;;;;;;;;;;;;;;;;;;7392098;19;911;-44
2022/01/26 10:25:05;;;;;;;;;;;;;;;;;;7390874;19;1830;-45
2022/01/26 10:27:54;;;;;;;;;;;;;;;;;;7392168;19;955;-44
2022/01/26 10:30:21;;;;;;;;;;;;;;;;;;7392030;19;847;-46
2022/01/26 10:32:48;;;;;;;;;;;;;;;;;;7391816;19;895;-44
2022/01/26 10:35:16;;;;;;;;;;;;;;;;;;7392174;19;942;-43
2022/01/26 10:37:49;;;;;;;;;;;;;;;;;;7391540;19;907;-51
2022/01/26 10:40:22;;;;;;;;;;;;;;;;;;7391020;19;938;-51
2022/01/26 10:43:03;;;;;;;;;;;;;;;;;;7390688;19;1019;-44
2022/01/26 10:45:43;;;;;;;;;;;;;;;;;;7389067;19;1860;-45
2022/01/26 10:48:23;;;;;;;;;;;;;;;;;;7391113;19;887;-43
2022/01/26 10:53:41;;;;;;;;;;;;;;;;;;7390031;19;859;-46
2022/01/26 10:56:08;;;;;;;;;;;;;;;;;;7390818;19;955;-45
2022/01/26 10:58:35;;;;;;;;;;;;;;;;;;7390572;19;891;-52
2022/01/26 11:01:04;;;;;;;;;;;;;;;;;;7390547;19;934;-45
2022/01/26 11:03:31;;;;;;;;;;;;;;;;;;7391547;19;918;-46
2022/01/26 11:05:59;;;;;;;;;;;;;;;;;;7388573;19;1852;-45
2022/01/26 11:08:27;;;;;;;;;;;;;;;;;;7389768;19;874;-47
2022/01/26 11:10:55;;;;;;;;;;;;;;;;;;7392070;19;1174;-45
2022/01/26 11:13:23;;;;;;;;;;;;;;;;;;7390293;19;869;-50
2022/01/26 11:15:50;;;;;;;;;;;;;;;;;;7390926;19;946;-46
2022/01/26 11:18:21;;;;;;;;;;;;;;;;;;7390634;19;1204;-46
2022/01/26 11:20:51;;;;;;;;;;;;;;;;;;7388201;19;1149;-44
2022/01/26 11:23:19;;;;;;;;;;;;;;;;;;7389707;19;844;-43
2022/01/26 11:25:47;;;;;;;;;;;;;;;;;;7388825;19;1841;-46
2022/01/26 11:28:22;;;;;;;;;;;;;;;;;;7390149;19;888;-46
2022/01/26 11:30:51;;;;;;;;;;;;;;;;;;7389345;19;946;-43
2022/01/26 11:33:24;;;;;;;;;;;;;;;;;;7390298;19;923;-44
2022/01/26 11:35:53;;;;;;;;;;;;;;;;;;7389520;19;938;-47
2022/01/26 11:46:54;;;;;;;;;;;;;;;;;;7389507;19;911;-46
2022/01/26 11:49:26;;;;;;;;;;;;;;;;;;7389192;19;1049;-48
2022/01/26 11:51:56;;;;;;;;;;;;;;;;;;7389052;19;1001;-50
2022/01/26 11:54:26;;;;;;;;;;;;;;;;;;7389068;19;904;-45
2022/01/26 11:57:10;;;;;;;;;;;;;;;;;;7387627;19;914;-48
2022/01/26 11:59:44;;;;;;;;;;;;;;;;;;7390358;19;954;-44
2022/01/26 12:02:22;;;;;;;;;;;;;;;;;;7388664;19;874;-44
2022/01/26 12:05:01;;;;;;;;;;;;;;;;;;7390882;19;1853;-44
2022/01/26 12:07:28;;;;;;;;;;;;;;;;;;7397069;19;965;-50
2022/01/26 12:09:56;;;;;;;;;;;;;;;;;;7397305;19;1100;-47
2022/01/26 12:12:24;;;;;;;;;;;;;;;;;;7400184;19;1101;-43
2022/01/26 12:15:03;;;;;;;;;;;;;;;;;;7394985;19;951;-47
2022/01/26 12:17:36;;;;;;;;;;;;;;;;;;7395029;19;1217;-47
2022/01/26 12:43:07;;;;;;;;;;;;;;;;;;7394559;19;1004;-45
2022/01/26 12:45:53;;;;;;;;;;;;;;;;;;7393705;19;1847;-45
2022/01/26 12:48:20;;;;;;;;;;;;;;;;;;7394929;19;986;-44
2022/01/26 12:50:48;;;;;;;;;;;;;;;;;;7395486;19;803;-47
2022/01/26 12:53:21;;;;;;;;;;;;;;;;;;7395301;19;1025;-44
2022/01/26 12:55:53;;;;;;;;;;;;;;;;;;7394628;19;979;-46
2022/01/26 12:58:25;;;;;;;;;;;;;;;;;;7395440;19;951;-44
2022/01/26 13:00:52;;;;;;;;;;;;;;;;;;7394921;19;962;-44
2022/01/26 13:03:23;;;;;;;;;;;;;;;;;;7394757;19;888;-43
2022/01/26 13:05:50;;;;;;;;;;;;;;;;;;7392576;19;1865;-44
2022/01/26 13:08:17;;;;;;;;;;;;;;;;;;7394053;19;950;-49
2022/01/26 13:10:44;;;;;;;;;;;;;;;;;;7395399;19;1181;-47
2022/01/26 13:13:17;;;;;;;;;;;;;;;;;;7394569;19;975;-45
2022/01/26 13:16:05;;;;;;;;;;;;;;;;;;7393146;19;1037;-45
2022/01/26 13:21:37;;;;;;;;;;;;;;;;;;7394322;19;946;-44
2022/01/26 13:24:21;;;;;;;;;;;;;;;;;;7394219;19;935;-48
2022/01/26 13:27:00;;;;;;;;;;;;;;;;;;7393664;19;868;-50
2022/01/26 13:29:56;;;;;;;;;;;;;;;;;;7393530;19;1088;-45
2022/01/26 13:32:52;;;;;;;;;;;;;;;;;;7393867;19;893;-51
2022/01/26 13:35:42;;;;;;;;;;;;;;;;;;7393432;19;1664;-49
2022/01/26 13:38:25;;;;;;;;;;;;;;;;;;7393090;19;929;-51
2022/01/26 13:51:40;;;;;;;;;;;;;;;;;;7392770;19;925;-47
2022/01/26 13:59:25;;;;;;;;;;;;;;;;;;7393004;19;1002;-49
2022/01/26 14:01:52;;;;;;;;;;;;;;;;;;7392586;19;894;-48
2022/01/26 14:04:20;;;;;;;;;;;;;;;;;;7392449;19;946;-49
2022/01/26 14:06:47;;;;;;;;;;;;;;;;;;7390987;19;1862;-48
2022/01/26 14:09:15;;;;;;;;;;;;;;;;;;7392870;19;884;-45
2022/01/26 14:11:46;;;;;;;;;;;;;;;;;;7396078;19;1019;-44
2022/01/26 14:14:21;;;;;;;;;;;;;;;;;;7392205;19;950;-44
2022/01/26 14:16:56;;;;;;;;;;;;;;;;;;7392149;19;971;-48
2022/01/26 14:24:53;;;;;;;;;;;;;;;;;;7391517;19;1847;-46
2022/01/26 14:27:24;;;;;;;;;;;;;;;;;;7389934;19;966;-46
2022/01/26 14:30:01;;;;;;;;;;;;;;;;;;7392009;19;852;-45
2022/01/26 14:51:41;;;;;;;;;;;;;;;;;;7391657;19;946;-47
2022/01/26 15:44:05;;;;;;;;;;;;;;;;;;7388744;19;937;-45
2022/01/26 15:51:16;;;;;;;;;;;;;;;;;;7389618;19;1113;-49
2022/01/26 16:04:18;;;;;;;;;;;;;;;;;;7389293;19;1014;-49
2022/01/26 16:05:06;;;;;;;;;;;;;;;;;;7388687;19;1847;-46
2022/01/26 16:08:07;;;;;;;;;;;;;;;;;;7388988;19;911;-49
2022/01/26 16:21:24;;;;;;;;;;;;;;;;;;7388870;19;899;-44
2022/01/26 16:27:20;;;;;;;;;;;;;;;;;;7384360;19;1878;-47
2022/01/26 17:25:05;;;;;;;;;;;;;;;;;;7393454;19;865;-46
2022/01/26 18:49:10;;;;;;;;;;;;;;;;;;7390653;19;1861;-44
2022/01/26 18:49:40;;;;;;;;;;;;;;;;;;7390745;19;870;-43
2022/01/26 18:52:08;;;;;;;;;;;;;;;;;;7390268;19;1057;-44
2022/01/26 18:54:38;;;;;;;;;;;;;;;;;;7390802;19;1037;-45
2022/01/26 18:57:07;;;;;;;;;;;;;;;;;;7390299;19;962;-45
2022/01/26 18:59:34;;;;;;;;;;;;;;;;;;7389836;19;926;-46
2022/01/26 19:02:03;;;;;;;;;;;;;;;;;;7390817;19;957;-44
2022/01/26 19:04:47;;;;;;;;;;;;;;;;;;7390024;19;978;-43
2022/01/26 19:07:16;;;;;;;;;;;;;;;;;;7390031;19;1848;-43
2022/01/26 19:09:46;;;;;;;;;;;;;;;;;;7390098;19;974;-48
2022/01/26 19:12:17;;;;;;;;;;;;;;;;;;7394544;19;1197;-45
2022/01/26 19:14:50;;;;;;;;;;;;;;;;;;7388763;19;886;-47
2022/01/26 19:25:00;;;;;;;;;;;;;;;;;;7390706;19;897;-44
2022/01/26 19:27:47;;;;;;;;;;;;;;;;;;7388703;19;1853;-48
2022/01/26 19:44:22;;;;;;;;;;;;;;;;;;7387804;19;1034;-44
2022/01/26 19:47:16;;;;;;;;;;;;;;;;;;7388345;19;1842;-47
2022/01/26 19:52:25;;;;;;;;;;;;;;;;;;7389266;19;954;-45
2022/01/26 19:54:54;;;;;;;;;;;;;;;;;;7391401;19;1169;-44
2022/01/26 19:57:21;;;;;;;;;;;;;;;;;;7389517;19;1170;-49
2022/01/26 19:59:49;;;;;;;;;;;;;;;;;;7390309;19;875;-48
2022/01/26 20:02:16;;;;;;;;;;;;;;;;;;7389861;19;1223;-46
2022/01/26 20:04:45;;;;;;;;;;;;;;;;;;7388821;19;1139;-45
2022/01/26 20:07:20;;;;;;;;;;;;;;;;;;7387689;19;1856;-46
2022/01/26 20:09:53;;;;;;;;;;;;;;;;;;7390561;19;1080;-45
2022/01/26 20:13:15;;;;;;;;;;;;;;;;;;7393099;19;1200;-45
2022/01/26 20:15:08;;;;;;;;;;;;;;;;;;7386109;19;1538;-44
2022/01/26 20:17:35;;;;;;;;;;;;;;;;;;7388420;19;899;-46
2022/01/26 20:20:05;;;;;;;;;;;;;;;;;;7388198;19;928;-45
2022/01/26 20:22:32;;;;;;;;;;;;;;;;;;7388493;19;867;-44
2022/01/26 20:24:59;;;;;;;;;;;;;;;;;;7389070;19;928;-44
2022/01/26 20:27:26;;;;;;;;;;;;;;;;;;7393978;19;1864;-46
2022/01/26 20:30:09;;;;;;;;;;;;;;;;;;7396412;19;954;-44
2022/01/26 20:32:36;;;;;;;;;;;;;;;;;;7395820;19;1043;-44
2022/01/26 20:35:04;;;;;;;;;;;;;;;;;;7395799;19;1045;-43
2022/01/26 20:37:31;;;;;;;;;;;;;;;;;;7395126;19;1029;-44
2022/01/26 20:39:59;;;;;;;;;;;;;;;;;;7396041;19;954;-46
2022/01/26 20:42:26;;;;;;;;;;;;;;;;;;7393369;19;1305;-44
2022/01/26 20:44:54;;;;;;;;;;;;;;;;;;7395581;19;1018;-44
2022/01/26 20:47:21;;;;;;;;;;;;;;;;;;7394525;19;1831;-43
2022/01/26 20:49:51;;;;;;;;;;;;;;;;;;7396121;19;935;-45
2022/01/26 20:52:19;;;;;;;;;;;;;;;;;;7395603;19;987;-48
2022/01/26 20:54:46;;;;;;;;;;;;;;;;;;7398552;19;969;-43
2022/01/26 20:57:14;;;;;;;;;;;;;;;;;;7395296;19;1088;-51
2022/01/26 20:59:41;;;;;;;;;;;;;;;;;;7395446;19;1227;-45
2022/01/26 21:02:09;;;;;;;;;;;;;;;;;;7395225;19;1186;-48
2022/01/26 21:04:36;;;;;;;;;;;;;;;;;;7394386;19;876;-45
2022/01/26 21:07:05;;;;;;;;;;;;;;;;;;7393423;19;1855;-45
2022/01/26 21:09:32;;;;;;;;;;;;;;;;;;7394500;19;924;-44
2022/01/26 21:12:00;;;;;;;;;;;;;;;;;;7398386;19;1134;-46
2022/01/26 21:14:27;;;;;;;;;;;;;;;;;;7394665;19;1065;-44
2022/01/26 21:16:55;;;;;;;;;;;;;;;;;;7394440;19;899;-48
2022/01/26 21:19:22;;;;;;;;;;;;;;;;;;7394477;19;981;-44
2022/01/26 21:21:50;;;;;;;;;;;;;;;;;;7394513;19;938;-44
2022/01/26 21:24:36;;;;;;;;;;;;;;;;;;7394605;19;883;-44
2022/01/26 21:27:03;;;;;;;;;;;;;;;;;;7392846;19;1845;-46
2022/01/26 21:29:30;;;;;;;;;;;;;;;;;;7394044;19;1021;-42
2022/01/26 21:31:57;;;;;;;;;;;;;;;;;;7394021;19;896;-44
2022/01/26 21:34:25;;;;;;;;;;;;;;;;;;7393699;19;847;-43
2022/01/26 21:36:52;;;;;;;;;;;;;;;;;;7393424;19;924;-47
2022/01/26 21:39:19;;;;;;;;;;;;;;;;;;7393659;19;1046;-44
2022/01/26 21:41:48;;;;;;;;;;;;;;;;;;7393409;19;1038;-43
2022/01/26 21:44:15;;;;;;;;;;;;;;;;;;7391030;19;1038;-44
2022/01/26 21:46:45;;;;;;;;;;;;;;;;;;7392857;19;1870;-44
2022/01/26 21:49:13;;;;;;;;;;;;;;;;;;7393446;19;998;-43
2022/01/26 21:51:40;;;;;;;;;;;;;;;;;;7392840;19;1037;-45
2022/01/26 21:54:09;;;;;;;;;;;;;;;;;;7393381;19;1218;-43
2022/01/26 21:56:36;;;;;;;;;;;;;;;;;;7393248;19;906;-45
2022/01/26 21:59:03;;;;;;;;;;;;;;;;;;7393070;19;1029;-44
2022/01/26 22:01:32;;;;;;;;;;;;;;;;;;7392830;19;1019;-47
2022/01/26 22:04:01;;;;;;;;;;;;;;;;;;7393023;19;972;-44
2022/01/26 22:06:29;;;;;;;;;;;;;;;;;;7392350;19;1856;-52
2022/01/26 22:08:56;;;;;;;;;;;;;;;;;;7392945;19;991;-43
2022/01/26 22:11:23;;;;;;;;;;;;;;;;;;7395207;19;1185;-48
2022/01/26 22:13:50;;;;;;;;;;;;;;;;;;7393201;19;927;-44
2022/01/26 22:16:18;;;;;;;;;;;;;;;;;;7392732;19;918;-45
2022/01/26 22:18:49;;;;;;;;;;;;;;;;;;7392673;19;981;-45
2022/01/26 22:21:16;;;;;;;;;;;;;;;;;;7391701;19;852;-45
2022/01/26 22:23:43;;;;;;;;;;;;;;;;;;7391541;19;935;-45
2022/01/26 22:26:11;;;;;;;;;;;;;;;;;;7391891;19;947;-47
2022/01/26 22:28:45;;;;;;;;;;;;;;;;;;7390016;19;1838;-44
2022/01/26 22:31:12;;;;;;;;;;;;;;;;;;7391367;19;1049;-43
2022/01/26 22:33:39;;;;;;;;;;;;;;;;;;7390966;19;1030;-45
2022/01/26 22:36:06;;;;;;;;;;;;;;;;;;7391863;19;1001;-44
2022/01/26 22:38:34;;;;;;;;;;;;;;;;;;7391100;19;966;-46
2022/01/26 22:41:01;;;;;;;;;;;;;;;;;;7391701;19;958;-43
2022/01/26 22:43:28;;;;;;;;;;;;;;;;;;7391154;19;1144;-46
2022/01/26 22:45:55;;;;;;;;;;;;;;;;;;7391815;19;947;-44
2022/01/26 22:48:25;;;;;;;;;;;;;;;;;;7387716;19;1838;-46
2022/01/26 22:50:56;;;;;;;;;;;;;;;;;;7390237;19;1044;-46
2022/01/26 22:53:35;;;;;;;;;;;;;;;;;;7390896;19;863;-45
2022/01/26 22:56:03;;;;;;;;;;;;;;;;;;7390949;19;975;-45
2022/01/26 22:58:30;;;;;;;;;;;;;;;;;;7390776;19;926;-44
2022/01/26 23:03:45;;;;;;;;;;;;;;;;;;7391241;19;879;-44
2022/01/26 23:06:13;;;;;;;;;;;;;;;;;;7390139;19;1030;-46
2022/01/26 23:08:44;;;;;;;;;;;;;;;;;;7389740;19;1810;-46
2022/01/26 23:11:36;;;;;;;;;;;;;;;;;;7393220;19;1131;-44
2022/01/26 23:14:26;;;;;;;;;;;;;;;;;;7390528;19;959;-44
2022/01/26 23:17:13;;;;;;;;;;;;;;;;;;7390711;19;859;-43
2022/01/26 23:20:00;;;;;;;;;;;;;;;;;;7389850;19;933;-42
2022/01/26 23:22:29;;;;;;;;;;;;;;;;;;7390138;19;850;-44
2022/01/26 23:39:04;;;;;;;;;;;;;;;;;;7390168;19;970;-47
2022/01/26 23:57:21;;;;;;;;;;;;;;;;;;7389633;19;958;-47
